createdAt,value
2023-03-06T00:00:23.503Z,1.15
2023-03-06T00:02:51.723Z,1.12
2023-03-06T00:05:19.195Z,1.19
2023-03-06T00:07:45.829Z,1.19
2023-03-06T00:10:15.030Z,1.20
2023-03-06T00:12:42.060Z,1.18
2023-03-06T00:15:09.454Z,1.20
2023-03-06T00:17:36.387Z,1.19
2023-03-06T00:20:04.513Z,0.95
2023-03-06T00:22:31.248Z,1.10
2023-03-06T00:24:58.056Z,1.03
2023-03-06T00:27:26.172Z,0.95
2023-03-06T00:29:57.897Z,0.93
2023-03-06T00:32:25.974Z,0.92
2023-03-06T00:34:54.141Z,0.85
2023-03-06T00:37:22.657Z,0.91
2023-03-06T00:39:49.655Z,0.89
2023-03-06T00:42:17.322Z,0.89
2023-03-06T00:44:44.269Z,0.88
2023-03-06T00:47:11.245Z,0.87
2023-03-06T00:49:38.442Z,0.87
2023-03-06T00:52:05.280Z,0.91
2023-03-06T00:54:31.922Z,0.87
2023-03-06T00:56:58.590Z,0.91
2023-03-06T00:59:25.287Z,0.90
2023-03-06T01:01:51.981Z,0.91
2023-03-06T01:04:18.743Z,0.92
2023-03-06T01:06:46.145Z,0.92
2023-03-06T01:09:13.129Z,0.92
2023-03-06T01:11:39.918Z,0.93
2023-03-06T01:14:06.734Z,0.92
2023-03-06T01:16:33.653Z,0.91
2023-03-06T01:19:00.522Z,0.90
2023-03-06T01:21:27.209Z,0.91
2023-03-06T01:23:53.860Z,0.92
2023-03-06T01:26:20.492Z,0.88
2023-03-06T01:28:47.302Z,0.97
2023-03-06T01:31:13.946Z,0.96
2023-03-06T01:33:40.603Z,0.94
2023-03-06T01:36:09.590Z,0.98
2023-03-06T01:38:36.384Z,0.99
2023-03-06T01:41:04.359Z,0.99
2023-03-06T01:43:37.082Z,1.00
2023-03-06T01:46:28.462Z,1.01
2023-03-06T01:48:56.841Z,0.97
2023-03-06T01:51:28.806Z,1.01
2023-03-06T01:53:57.446Z,0.97
2023-03-06T01:56:25.044Z,0.98
2023-03-06T01:58:52.789Z,0.95
2023-03-06T02:01:20.035Z,0.97
2023-03-06T02:03:49.738Z,0.96
2023-03-06T02:06:19.755Z,0.94
2023-03-06T02:08:49.529Z,0.90
2023-03-06T02:11:22.120Z,0.88
2023-03-06T02:13:50.145Z,0.85
2023-03-06T02:16:17.817Z,0.82
2023-03-06T02:18:45.817Z,0.82
2023-03-06T02:21:20.248Z,0.80
2023-03-06T02:24:15.811Z,0.82
2023-03-06T02:26:44.841Z,0.83
2023-03-06T02:29:11.701Z,0.82
2023-03-06T02:31:38.392Z,0.81
2023-03-06T02:34:14.125Z,0.80
2023-03-06T02:36:45.393Z,0.80
2023-03-06T02:39:13.263Z,0.78
2023-03-06T02:41:40.039Z,0.71
2023-03-06T02:44:06.942Z,0.74
2023-03-06T02:46:33.651Z,0.72
2023-03-06T02:49:00.431Z,0.76
2023-03-06T02:51:27.073Z,0.75
2023-03-06T02:53:53.794Z,0.77
2023-03-06T02:56:20.485Z,0.77
2023-03-06T02:58:47.140Z,0.78
2023-03-06T03:01:13.907Z,0.79
2023-03-06T03:03:40.646Z,0.80
2023-03-06T03:06:07.807Z,0.82
2023-03-06T03:08:34.962Z,0.81
2023-03-06T03:11:02.036Z,0.81
2023-03-06T03:13:28.688Z,0.80
2023-03-06T03:16:03.981Z,0.83
2023-03-06T03:18:30.629Z,0.82
2023-03-06T03:20:57.733Z,0.82
2023-03-06T03:23:25.295Z,0.82
2023-03-06T03:25:52.085Z,0.83
2023-03-06T03:28:19.261Z,0.79
2023-03-06T03:30:46.264Z,0.78
2023-03-06T03:33:12.992Z,0.81
2023-03-06T03:35:39.736Z,0.81
2023-03-06T03:38:06.399Z,0.81
2023-03-06T03:40:33.080Z,0.82
2023-03-06T03:42:59.794Z,0.79
2023-03-06T03:45:26.586Z,0.77
2023-03-06T03:47:53.248Z,0.76
2023-03-06T03:50:20.168Z,0.74
2023-03-06T03:52:46.847Z,0.73
2023-03-06T03:55:13.524Z,0.79
2023-03-06T03:57:40.234Z,0.80
2023-03-06T04:00:08.009Z,0.78
2023-03-06T04:02:34.685Z,0.80
2023-03-06T04:05:01.472Z,0.77
2023-03-06T04:07:28.158Z,0.81
2023-03-06T04:09:54.983Z,0.81
2023-03-06T04:12:21.620Z,0.78
2023-03-06T04:14:48.270Z,0.79
2023-03-06T04:17:15.045Z,0.78
2023-03-06T04:19:43.447Z,0.79
2023-03-06T04:22:10.079Z,0.80
2023-03-06T04:24:36.741Z,0.77
2023-03-06T04:27:03.409Z,0.75
2023-03-06T04:29:30.077Z,0.72
2023-03-06T04:31:56.788Z,0.70
2023-03-06T04:34:23.489Z,0.66
2023-03-06T04:36:50.193Z,0.66
2023-03-06T04:39:17.239Z,0.68
2023-03-06T04:41:43.873Z,0.72
2023-03-06T04:44:10.770Z,0.71
2023-03-06T04:46:37.613Z,0.69
2023-03-06T04:49:04.296Z,0.66
2023-03-06T04:51:37.464Z,0.43
2023-03-06T04:54:05.097Z,0.63
2023-03-06T04:56:31.794Z,0.63
2023-03-06T04:58:58.502Z,0.60
2023-03-06T05:05:14.136Z,0.60
2023-03-06T05:07:41.219Z,0.62
2023-03-06T05:10:12.035Z,0.60
2023-03-06T05:12:39.440Z,0.62
2023-03-06T05:15:07.430Z,0.66
2023-03-06T05:17:34.488Z,0.65
2023-03-06T05:20:01.191Z,0.63
2023-03-06T05:22:28.376Z,0.62
2023-03-06T05:24:55.026Z,0.64
2023-03-06T05:27:22.141Z,0.64
2023-03-06T05:29:48.862Z,0.64
2023-03-06T05:32:16.985Z,0.64
2023-03-06T05:34:43.835Z,0.59
2023-03-06T05:37:10.549Z,0.58
2023-03-06T05:39:37.405Z,0.55
2023-03-06T05:42:04.329Z,0.56
2023-03-06T05:44:34.152Z,0.53
2023-03-06T05:47:01.760Z,0.54
2023-03-06T05:49:32.883Z,0.51
2023-03-06T05:51:59.940Z,0.49
2023-03-06T05:54:26.683Z,0.49
2023-03-06T05:56:53.593Z,0.45
2023-03-06T05:59:20.335Z,0.40
2023-03-06T06:01:47.076Z,0.36
2023-03-06T06:04:13.801Z,0.36
2023-03-06T06:06:40.435Z,0.34
2023-03-06T06:09:07.128Z,0.34
2023-03-06T06:11:33.785Z,0.34
2023-03-06T06:14:00.450Z,0.30
2023-03-06T06:16:27.099Z,0.32
2023-03-06T06:18:53.740Z,0.32
2023-03-06T06:21:20.442Z,0.34
2023-03-06T06:23:47.122Z,0.34
2023-03-06T06:26:13.764Z,0.34
2023-03-06T06:28:40.443Z,0.31
2023-03-06T06:31:12.644Z,0.34
2023-03-06T06:33:40.100Z,0.33
2023-03-06T06:36:18.765Z,0.32
2023-03-06T06:38:45.460Z,0.31
2023-03-06T06:41:38.918Z,0.35
2023-03-06T06:43:59.292Z,0.39
2023-03-06T06:47:10.782Z,0.39
2023-03-06T06:49:14.755Z,0.39
2023-03-06T06:51:41.549Z,0.35
2023-03-06T06:54:08.295Z,0.33
2023-03-06T06:56:34.956Z,0.35
2023-03-06T06:59:15.737Z,0.36
2023-03-06T07:01:42.948Z,0.35
2023-03-06T07:04:12.335Z,0.34
2023-03-06T07:06:38.828Z,0.31
2023-03-06T07:09:08.178Z,0.31
2023-03-06T07:11:34.713Z,0.32
2023-03-06T07:14:01.948Z,0.33
2023-03-06T07:16:28.523Z,0.36
2023-03-06T07:18:54.999Z,0.34
2023-03-06T07:21:21.844Z,0.36
2023-03-06T07:23:48.400Z,0.36
2023-03-06T07:26:14.878Z,0.36
2023-03-06T07:28:51.878Z,0.36
2023-03-06T07:31:24.842Z,0.35
2023-03-06T07:33:53.081Z,0.34
2023-03-06T07:36:20.859Z,0.29
2023-03-06T07:38:47.386Z,0.27
2023-03-06T07:41:16.288Z,0.30
2023-03-06T07:43:44.157Z,0.26
2023-03-06T07:46:12.388Z,0.27
2023-03-06T07:48:39.013Z,0.23
2023-03-06T07:51:08.316Z,0.25
2023-03-06T07:53:35.226Z,0.24
2023-03-06T07:56:08.473Z,0.28
2023-03-06T07:58:36.651Z,0.29
2023-03-06T08:01:09.234Z,0.31
2023-03-06T08:03:36.278Z,0.32
2023-03-06T08:06:10.037Z,0.36
2023-03-06T08:08:39.399Z,0.34
2023-03-06T08:11:07.702Z,0.34
2023-03-06T08:13:35.268Z,0.35
2023-03-06T08:16:02.094Z,0.34
2023-03-06T08:18:28.620Z,0.40
2023-03-06T08:21:02.760Z,0.40
2023-03-06T08:23:29.462Z,0.46
2023-03-06T08:25:57.990Z,0.51
2023-03-06T08:28:24.938Z,0.53
2023-03-06T08:30:51.569Z,0.51
2023-03-06T08:33:18.051Z,0.48
2023-03-06T08:35:44.637Z,0.48
2023-03-06T08:38:11.133Z,0.49
2023-03-06T08:40:38.440Z,0.50
2023-03-06T08:43:05.080Z,0.53
2023-03-06T08:45:31.606Z,0.54
2023-03-06T08:47:58.393Z,0.55
2023-03-06T08:50:25.112Z,0.57
2023-03-06T08:52:51.796Z,0.58
2023-03-06T08:55:18.622Z,0.59
2023-03-06T08:57:45.803Z,0.63
2023-03-06T09:00:13.900Z,0.64
2023-03-06T09:02:40.521Z,0.64
2023-03-06T09:05:08.496Z,0.70
2023-03-06T09:07:35.565Z,0.68
2023-03-06T09:10:02.046Z,0.68
2023-03-06T09:12:30.722Z,0.71
2023-03-06T09:14:57.373Z,0.72
2023-03-06T09:17:23.839Z,0.74
2023-03-06T09:19:50.902Z,0.78
2023-03-06T09:22:17.376Z,0.83
2023-03-06T09:24:43.858Z,0.83
2023-03-06T09:27:10.329Z,0.92
2023-03-06T09:29:36.992Z,1.02
2023-03-06T09:32:04.787Z,1.07
2023-03-06T09:34:31.351Z,1.09
2023-03-06T09:36:58.009Z,1.15
2023-03-06T09:39:25.843Z,1.21
2023-03-06T09:41:53.557Z,1.29
2023-03-06T09:49:02.532Z,1.59
2023-03-06T09:51:39.225Z,1.66
2023-03-06T09:54:16.213Z,1.66
2023-03-06T09:56:48.753Z,1.70
2023-03-06T09:59:21.784Z,1.70
2023-03-06T10:02:18.775Z,1.66
2023-03-06T10:04:55.966Z,1.64
2023-03-06T10:07:27.383Z,1.63
2023-03-06T10:09:59.204Z,1.63
2023-03-06T10:12:29.109Z,1.70
2023-03-06T10:15:16.114Z,1.79
2023-03-06T10:17:43.644Z,1.89
2023-03-06T10:20:36.685Z,1.91
2023-03-06T10:23:54.528Z,1.86
2023-03-06T10:26:26.830Z,1.84
2023-03-06T10:29:27.042Z,1.85
2023-03-06T10:32:03.770Z,1.91
2023-03-06T10:34:35.339Z,2.05
2023-03-06T10:37:19.866Z,2.31
2023-03-06T10:39:48.234Z,2.50
2023-03-06T10:42:14.711Z,2.69
2023-03-06T10:44:41.188Z,2.86
2023-03-06T10:47:27.853Z,3.02
2023-03-06T10:50:00.371Z,3.15
2023-03-06T10:52:35.254Z,3.27
2023-03-06T10:55:26.396Z,3.41
2023-03-06T10:57:53.075Z,3.43
2023-03-06T11:00:26.350Z,3.47
2023-03-06T11:03:22.802Z,3.50
2023-03-06T11:06:04.842Z,3.54
2023-03-06T11:08:32.250Z,3.63
2023-03-06T11:11:03.030Z,3.71
2023-03-06T11:13:36.310Z,3.74
2023-03-06T11:16:15.964Z,3.63
2023-03-06T11:18:55.579Z,3.61
2023-03-06T11:21:47.567Z,3.69
2023-03-06T11:24:20.205Z,3.98
2023-03-06T11:27:30.369Z,4.28
2023-03-06T11:29:59.591Z,4.55
2023-03-06T11:32:42.971Z,4.68
2023-03-06T11:35:13.762Z,4.81
2023-03-06T11:37:54.133Z,4.91
2023-03-06T11:40:29.267Z,4.92
2023-03-06T11:43:04.286Z,4.85
2023-03-06T11:45:44.835Z,4.56
2023-03-06T11:48:14.278Z,4.33
2023-03-06T11:50:46.181Z,4.16
2023-03-06T11:53:19.103Z,3.98
2023-03-06T11:55:51.541Z,3.98
2023-03-06T11:58:43.031Z,3.94
2023-03-06T12:01:24.282Z,3.94
2023-03-06T12:04:14.227Z,3.97
2023-03-06T12:06:52.008Z,4.01
2023-03-06T12:09:43.631Z,3.98
2023-03-06T12:12:22.065Z,3.95
2023-03-06T12:14:57.723Z,4.04
2023-03-06T12:17:48.003Z,4.14
2023-03-06T12:20:33.195Z,4.14
2023-03-06T12:23:17.913Z,4.12
2023-03-06T12:25:55.423Z,3.87
2023-03-06T12:28:38.960Z,3.82
2023-03-06T12:31:17.819Z,3.75
2023-03-06T12:34:06.039Z,3.73
2023-03-06T12:36:57.647Z,3.81
2023-03-06T12:39:40.483Z,3.94
2023-03-06T12:42:38.657Z,4.07
2023-03-06T12:45:18.508Z,4.14
2023-03-06T12:47:48.124Z,4.15
2023-03-06T12:50:29.393Z,4.20
2023-03-06T12:52:59.017Z,4.22
2023-03-06T12:55:26.301Z,4.21
2023-03-06T12:57:53.774Z,4.22
2023-03-06T13:00:32.367Z,4.14
2023-03-06T13:03:18.790Z,4.03
2023-03-06T13:06:23.185Z,4.03
2023-03-06T13:09:14.679Z,4.04
2023-03-06T13:11:47.048Z,3.97
2023-03-06T13:14:24.529Z,3.93
2023-03-06T13:16:51.389Z,3.90
2023-03-06T13:19:26.402Z,3.86
2023-03-06T13:21:55.792Z,3.86
2023-03-06T13:24:31.953Z,3.78
2023-03-06T13:27:12.275Z,3.71
2023-03-06T13:29:38.897Z,3.76
2023-03-06T13:32:14.509Z,3.78
2023-03-06T13:34:43.222Z,3.77
2023-03-06T13:37:19.757Z,3.80
2023-03-06T13:40:12.103Z,3.79
2023-03-06T13:42:44.705Z,3.74
2023-03-06T13:45:16.587Z,3.75
2023-03-06T13:50:46.780Z,3.68
2023-03-06T13:53:53.125Z,3.65
2023-03-06T13:56:41.322Z,3.61
2023-03-06T13:59:42.996Z,3.61
2023-03-06T14:02:28.196Z,3.67
2023-03-06T14:04:57.453Z,3.68
2023-03-06T14:07:51.943Z,3.71
2023-03-06T14:10:25.836Z,3.76
2023-03-06T14:13:02.842Z,3.79
2023-03-06T14:15:42.402Z,3.83
2023-03-06T14:18:25.149Z,3.87
2023-03-06T14:20:51.968Z,3.90
2023-03-06T14:23:21.289Z,3.91
2023-03-06T14:25:54.619Z,3.91
2023-03-06T14:28:36.536Z,3.89
2023-03-06T14:31:05.725Z,3.88
2023-03-06T14:33:34.685Z,3.85
2023-03-06T14:36:08.152Z,3.79
2023-03-06T14:38:43.798Z,3.76
2023-03-06T14:41:11.763Z,3.81
2023-03-06T14:43:39.707Z,3.83
2023-03-06T14:46:07.062Z,3.82
2023-03-06T14:48:42.493Z,3.83
2023-03-06T14:51:17.608Z,3.79
2023-03-06T14:53:47.960Z,3.77
2023-03-06T14:56:18.733Z,3.71
2023-03-06T14:58:53.883Z,3.71
2023-03-06T15:01:42.050Z,3.71
2023-03-06T15:04:26.413Z,3.70
2023-03-06T15:06:54.479Z,3.65
2023-03-06T15:09:27.805Z,3.64
2023-03-06T15:12:08.423Z,3.63
2023-03-06T15:14:37.868Z,3.65
2023-03-06T15:17:38.860Z,3.63
2023-03-06T15:20:10.243Z,3.63
2023-03-06T15:22:43.513Z,3.65
2023-03-06T15:25:26.710Z,3.70
2023-03-06T15:27:58.853Z,3.72
2023-03-06T15:30:33.446Z,3.74
2023-03-06T15:33:25.725Z,3.78
2023-03-06T15:35:57.032Z,3.76
2023-03-06T15:38:42.681Z,3.71
2023-03-06T15:41:33.924Z,3.72
2023-03-06T15:44:02.560Z,3.72
2023-03-06T15:46:29.916Z,3.68
2023-03-06T15:49:04.230Z,3.61
2023-03-06T15:51:32.155Z,3.59
2023-03-06T15:54:11.119Z,3.50
2023-03-06T15:56:43.444Z,3.41
2023-03-06T15:59:22.023Z,3.30
2023-03-06T16:01:49.289Z,3.27
2023-03-06T16:04:17.030Z,3.20
2023-03-06T16:06:45.844Z,3.14
2023-03-06T16:09:13.450Z,3.07
2023-03-06T16:11:47.029Z,3.01
2023-03-06T16:14:23.537Z,2.96
2023-03-06T16:16:52.366Z,2.91
2023-03-06T16:19:26.786Z,2.86
2023-03-06T16:21:54.342Z,2.83
2023-03-06T16:24:20.859Z,2.79
2023-03-06T16:26:52.610Z,2.69
2023-03-06T16:29:25.126Z,2.66
2023-03-06T16:31:51.726Z,2.59
2023-03-06T16:34:19.748Z,2.53
2023-03-06T16:36:48.026Z,2.49
2023-03-06T16:39:20.009Z,2.43
2023-03-06T16:41:47.058Z,2.38
2023-03-06T16:44:13.670Z,2.31
2023-03-06T16:46:45.587Z,2.25
2023-03-06T16:49:17.258Z,2.18
2023-03-06T16:51:44.125Z,2.12
2023-03-06T16:54:11.113Z,2.06
2023-03-06T16:56:37.595Z,2.01
2023-03-06T16:59:04.206Z,1.98
2023-03-06T17:01:30.799Z,1.92
2023-03-06T17:03:57.360Z,1.91
2023-03-06T17:09:14.171Z,1.84
2023-03-06T17:11:42.886Z,1.78
2023-03-06T17:14:09.390Z,1.75
2023-03-06T17:16:40.059Z,1.68
2023-03-06T17:19:07.326Z,1.62
2023-03-06T17:21:35.349Z,1.56
2023-03-06T17:24:03.600Z,1.52
2023-03-06T17:26:30.172Z,1.46
2023-03-06T17:28:56.700Z,1.43
2023-03-06T17:31:26.527Z,1.39
2023-03-06T17:34:00.389Z,1.35
2023-03-06T17:36:31.572Z,1.27
2023-03-06T17:39:00.224Z,1.22
2023-03-06T17:41:27.015Z,1.18
2023-03-06T17:43:57.708Z,1.13
2023-03-06T17:46:24.653Z,1.10
2023-03-06T17:48:51.137Z,1.05
2023-03-06T17:51:17.596Z,1.03
2023-03-06T17:53:44.127Z,0.99
2023-03-06T17:56:13.439Z,0.96
2023-03-06T17:58:39.916Z,0.94
2023-03-06T18:01:15.858Z,0.91
2023-03-06T18:03:47.789Z,0.88
2023-03-06T18:06:15.256Z,0.85
2023-03-06T18:08:42.103Z,0.80
2023-03-06T18:11:10.849Z,0.82
2023-03-06T18:13:40.106Z,0.79
2023-03-06T18:16:08.063Z,0.76
2023-03-06T18:18:35.248Z,0.71
2023-03-06T18:21:09.322Z,0.70
2023-03-06T18:23:37.412Z,0.67
2023-03-06T18:26:13.463Z,0.64
2023-03-06T18:28:42.324Z,0.61
2023-03-06T18:31:21.951Z,0.58
2023-03-06T18:33:49.386Z,0.57
2023-03-06T18:36:16.777Z,0.57
2023-03-06T18:38:45.412Z,0.56
2023-03-06T18:41:13.460Z,0.56
2023-03-06T18:43:40.128Z,0.54
2023-03-06T18:46:06.689Z,0.55
2023-03-06T18:48:33.182Z,0.52
2023-03-06T18:51:07.860Z,0.51
2023-03-06T18:53:34.920Z,0.51
2023-03-06T18:56:01.908Z,0.48
2023-03-06T18:58:28.378Z,0.48
2023-03-06T19:00:55.869Z,0.48
2023-03-06T19:03:23.230Z,0.47
2023-03-06T19:05:49.828Z,0.46
2023-03-06T19:08:17.704Z,0.44
2023-03-06T19:10:49.897Z,0.44
2023-03-06T19:13:16.531Z,0.41
2023-03-06T19:15:45.551Z,0.43
2023-03-06T19:18:15.368Z,0.40
2023-03-06T19:20:41.937Z,0.38
2023-03-06T19:23:09.202Z,0.35
2023-03-06T19:25:36.292Z,0.33
2023-03-06T19:28:03.469Z,0.30
2023-03-06T19:30:29.984Z,0.25
2023-03-06T19:32:56.965Z,0.26
2023-03-06T19:35:24.686Z,0.22
2023-03-06T19:37:52.004Z,0.20
2023-03-06T19:40:18.959Z,0.18
2023-03-06T19:42:46.189Z,0.18
2023-03-06T19:45:12.822Z,0.19
2023-03-06T19:47:39.441Z,0.20
2023-03-06T19:50:06.582Z,0.17
2023-03-06T19:52:37.213Z,0.15
2023-03-06T19:55:04.102Z,0.15
2023-03-06T19:57:30.805Z,0.15
2023-03-06T19:59:58.657Z,0.15
2023-03-06T20:02:27.149Z,0.14
2023-03-06T20:04:54.945Z,0.12
2023-03-06T20:07:22.127Z,0.09
2023-03-06T20:09:48.928Z,0.08
2023-03-06T20:12:15.803Z,0.05
2023-03-06T20:14:42.837Z,0.01
2023-03-06T20:17:09.608Z,-0.01
2023-03-06T20:19:36.577Z,-0.04
2023-03-06T20:22:03.606Z,-0.07
2023-03-06T20:24:30.307Z,-0.10
2023-03-06T20:26:58.335Z,-0.11
2023-03-06T20:29:28.124Z,-0.13
2023-03-06T20:31:56.882Z,-0.12
2023-03-06T20:34:25.715Z,-0.19
2023-03-06T20:36:52.812Z,-0.17
2023-03-06T20:39:21.711Z,-0.17
2023-03-06T20:41:48.768Z,-0.19
2023-03-06T20:44:18.230Z,-0.19
2023-03-06T20:46:45.768Z,-0.29
2023-03-06T20:49:13.144Z,-0.23
2023-03-06T20:51:40.342Z,-0.25
2023-03-06T20:54:09.807Z,-0.25
2023-03-06T20:56:39.320Z,-0.27
2023-03-06T20:59:06.421Z,-0.25
2023-03-06T21:01:36.163Z,-0.29
2023-03-06T21:04:04.397Z,-0.27
2023-03-06T21:06:31.852Z,-0.29
2023-03-06T21:08:59.794Z,-0.30
2023-03-06T21:11:27.829Z,-0.32
2023-03-06T21:13:55.154Z,-0.30
2023-03-06T21:16:24.039Z,-0.30
2023-03-06T21:18:50.876Z,-0.27
2023-03-06T21:21:20.232Z,-0.25
2023-03-06T21:23:48.273Z,-0.22
2023-03-06T21:26:20.809Z,-0.18
2023-03-06T21:28:47.692Z,-0.15
2023-03-06T21:31:16.319Z,-0.11
2023-03-06T21:33:43.835Z,-0.07
2023-03-06T21:36:11.096Z,-0.02
2023-03-06T21:38:38.010Z,0.03
2023-03-06T21:41:16.877Z,0.06
2023-03-06T21:43:43.851Z,0.08
2023-03-06T21:46:11.912Z,0.13
2023-03-06T21:48:38.597Z,0.15
2023-03-06T21:51:06.245Z,0.18
2023-03-06T21:53:32.922Z,0.24
2023-03-06T21:56:01.595Z,0.27
2023-03-06T21:58:29.232Z,0.30
2023-03-06T22:00:56.087Z,0.31
2023-03-06T22:03:22.869Z,0.33
2023-03-06T22:05:49.507Z,0.34
2023-03-06T22:08:16.132Z,0.36
2023-03-06T22:10:42.808Z,0.39
2023-03-06T22:13:09.478Z,0.43
2023-03-06T22:15:36.469Z,0.44
2023-03-06T22:18:03.216Z,0.47
2023-03-06T22:20:29.877Z,0.49
2023-03-06T22:22:56.533Z,0.51
2023-03-06T22:25:23.173Z,0.53
2023-03-06T22:27:49.813Z,0.57
2023-03-06T22:30:17.721Z,0.58
2023-03-06T22:32:44.471Z,0.60
2023-03-06T22:35:11.177Z,0.61
2023-03-06T22:37:37.881Z,0.65
2023-03-06T22:40:04.964Z,0.64
2023-03-06T22:42:31.666Z,0.64
2023-03-06T22:44:58.315Z,0.65
2023-03-06T22:47:24.938Z,0.65
2023-03-06T22:49:51.598Z,0.66
2023-03-06T22:52:19.521Z,0.65
2023-03-06T22:54:46.141Z,0.65
2023-03-06T22:57:12.813Z,0.58
2023-03-06T22:59:39.498Z,0.64
2023-03-06T23:02:06.158Z,0.64
2023-03-06T23:04:32.850Z,0.65
2023-03-06T23:06:59.572Z,0.64
2023-03-06T23:09:26.599Z,0.64
2023-03-06T23:11:53.359Z,0.63
2023-03-06T23:14:20.201Z,0.61
2023-03-06T23:16:47.053Z,0.61
2023-03-06T23:19:13.725Z,0.59
2023-03-06T23:21:40.947Z,0.57
2023-03-06T23:24:07.685Z,0.56
2023-03-06T23:26:34.933Z,0.57
2023-03-06T23:29:01.952Z,0.56
2023-03-06T23:31:30.698Z,0.55
2023-03-06T23:33:59.770Z,0.54
2023-03-06T23:36:27.062Z,0.52
2023-03-06T23:38:54.151Z,0.51
2023-03-06T23:41:22.185Z,0.54
2023-03-06T23:43:49.856Z,0.54
2023-03-06T23:46:17.068Z,0.54
2023-03-06T23:48:44.421Z,0.55
2023-03-06T23:51:19.300Z,0.56
2023-03-06T23:53:46.817Z,0.56
2023-03-06T23:56:13.610Z,0.57
2023-03-06T23:58:40.792Z,0.56
